Time;durP1;ratioP1;P1;durP2;ratioP2;P2;SDS_P1;SDS_P2;PMS_P1;PMS_P2;Temp;Humidity;BMP_temperature;BMP_pressure;BME280_temperature;BME280_humidity;BME280_pressure;Samples;Min_cycle;Max_cycle;Signal;HPM_P1;HPM_P2
2021/09/10 00:00:31;;;;;;;5.33;4.80;;;17.40;99.90;;;;;;4975082;28;20537;-72
2021/09/10 00:02:57;;;;;;;5.60;5.00;;;17.40;99.90;;;;;;4975426;28;20176;-72
2021/09/10 00:05:22;;;;;;;6.93;5.73;;;17.40;99.90;;;;;;4958014;28;20641;-73
2021/09/10 00:07:48;;;;;;;6.63;5.90;;;17.30;99.90;;;;;;4974928;28;20208;-72
2021/09/10 00:10:14;;;;;;;6.10;5.10;;;17.30;99.90;;;;;;4974911;28;20200;-71
2021/09/10 00:12:39;;;;;;;7.23;5.57;;;17.30;99.90;;;;;;4975121;28;20734;-72
2021/09/10 00:15:07;;;;;;;7.27;5.70;;;17.30;99.90;;;;;;4975461;28;20204;-71
2021/09/10 00:17:32;;;;;;;6.50;5.70;;;17.20;99.90;;;;;;4974947;28;20236;-72
2021/09/10 00:19:58;;;;;;;7.03;6.33;;;17.20;99.90;;;;;;4974647;28;20539;-71
2021/09/10 00:22:24;;;;;;;6.90;5.60;;;17.20;99.90;;;;;;4975097;28;20184;-73
2021/09/10 00:24:49;;;;;;;8.07;5.77;;;17.10;99.90;;;;;;4975117;28;20169;-71
2021/09/10 00:27:15;;;;;;;6.23;5.23;;;17.10;99.90;;;;;;4974545;28;20170;-73
2021/09/10 00:29:41;;;;;;;8.77;6.37;;;17.00;99.90;;;;;;4974457;28;20204;-72
2021/09/10 00:32:07;;;;;;;5.67;4.87;;;17.00;99.90;;;;;;4974854;28;20201;-73
2021/09/10 00:34:32;;;;;;;6.03;5.47;;;16.90;99.90;;;;;;4974779;28;20407;-73
2021/09/10 00:36:58;;;;;;;6.67;6.00;;;16.90;99.90;;;;;;4974131;28;20405;-72
2021/09/10 00:39:24;;;;;;;7.87;7.07;;;16.90;99.90;;;;;;4974304;28;20591;-72
2021/09/10 00:41:49;;;;;;;7.03;6.33;;;16.90;99.90;;;;;;4974819;28;20512;-71
2021/09/10 00:44:15;;;;;;;6.63;5.77;;;16.80;99.90;;;;;;4974347;28;20187;-72
2021/09/10 00:46:42;;;;;;;6.13;5.33;;;16.80;99.90;;;;;;4973970;28;20176;-72
2021/09/10 00:49:08;;;;;;;7.27;6.20;;;16.80;99.90;;;;;;4957084;28;20283;-72
2021/09/10 00:51:35;;;;;;;5.63;5.13;;;16.80;99.90;;;;;;4974753;28;20944;-71
2021/09/10 00:54:00;;;;;;;5.93;5.37;;;16.70;99.90;;;;;;4974134;28;20510;-71
2021/09/10 00:56:26;;;;;;;6.67;5.97;;;16.70;99.90;;;;;;4974362;28;20808;-71
2021/09/10 00:58:53;;;;;;;7.60;6.90;;;16.70;99.90;;;;;;4973723;28;20241;-71
2021/09/10 01:01:19;;;;;;;8.83;6.17;;;16.60;99.90;;;;;;4974306;28;20779;-71
2021/09/10 01:03:45;;;;;;;6.83;6.13;;;16.60;99.90;;;;;;4973789;28;20514;-71
2021/09/10 01:06:11;;;;;;;7.50;6.20;;;16.60;99.90;;;;;;4974456;28;20639;-73
2021/09/10 01:08:39;;;;;;;6.03;5.43;;;16.60;99.90;;;;;;4973997;28;20483;-71
2021/09/10 01:11:05;;;;;;;7.27;6.53;;;16.60;99.90;;;;;;4974456;28;20500;-70
2021/09/10 01:13:32;;;;;;;8.10;6.03;;;16.60;99.90;;;;;;4974279;28;20411;-72
2021/09/10 01:15:59;;;;;;;9.83;6.13;;;16.60;99.90;;;;;;4974302;28;20408;-72
2021/09/10 01:18:24;;;;;;;8.77;6.70;;;16.50;99.90;;;;;;4973821;28;20423;-71
2021/09/10 01:20:50;;;;;;;7.07;6.37;;;16.50;99.90;;;;;;4956595;28;20455;-71
2021/09/10 01:23:16;;;;;;;7.40;6.70;;;16.50;99.90;;;;;;4973898;28;20255;-72
2021/09/10 01:25:42;;;;;;;6.73;6.03;;;16.50;99.90;;;;;;4973718;28;20184;-73
2021/09/10 01:28:08;;;;;;;6.67;5.97;;;16.50;99.90;;;;;;4973598;28;20413;-72
2021/09/10 01:30:36;;;;;;;7.07;6.37;;;16.50;99.90;;;;;;4974007;28;20407;-71
2021/09/10 01:33:05;;;;;;;6.37;5.77;;;16.40;99.90;;;;;;4973459;28;20679;-70
2021/09/10 01:35:31;;;;;;;6.67;6.07;;;16.40;99.90;;;;;;4973533;28;20451;-71
2021/09/10 01:37:57;;;;;;;6.37;5.73;;;16.40;99.90;;;;;;4973391;28;20407;-71
2021/09/10 01:40:23;;;;;;;6.83;6.17;;;16.50;99.90;;;;;;4973991;28;20195;-71
2021/09/10 01:42:49;;;;;;;7.80;5.43;;;16.40;99.90;;;;;;4974032;28;20772;-70
2021/09/10 01:45:16;;;;;;;6.50;5.90;;;16.50;99.90;;;;;;4955944;28;20783;-70
2021/09/10 01:47:42;;;;;;;7.67;6.93;;;16.40;99.90;;;;;;4973163;28;20430;-70
2021/09/10 01:50:13;;;;;;;7.53;5.80;;;16.40;99.90;;;;;;4973363;28;20554;-70
2021/09/10 01:52:39;;;;;;;6.10;5.50;;;16.40;99.90;;;;;;4973624;28;20534;-71
2021/09/10 01:55:08;;;;;;;6.80;6.10;;;16.40;99.90;;;;;;4973194;28;20420;-70
2021/09/10 01:57:33;;;;;;;8.47;7.20;;;16.30;99.90;;;;;;4973691;28;20434;-70
2021/09/10 01:59:59;;;;;;;6.17;5.30;;;16.30;99.90;;;;;;4977327;28;20505;-70
2021/09/10 02:02:25;;;;;;;6.33;5.77;;;16.30;99.90;;;;;;4977122;28;20271;-71
2021/09/10 02:04:50;;;;;;;5.40;4.90;;;16.30;99.90;;;;;;4977501;28;20180;-71
2021/09/10 02:07:16;;;;;;;6.40;5.63;;;16.40;99.90;;;;;;4959393;28;20176;-70
2021/09/10 02:09:42;;;;;;;6.20;5.63;;;16.40;99.90;;;;;;4977059;28;20212;-71
2021/09/10 02:12:07;;;;;;;7.80;6.80;;;16.40;99.90;;;;;;4976728;28;20211;-71
2021/09/10 02:14:34;;;;;;;8.57;6.83;;;16.40;99.90;;;;;;4977167;28;20235;-70
2021/09/10 02:17:00;;;;;;;7.57;6.07;;;16.40;99.90;;;;;;4976661;28;20557;-71
2021/09/10 02:19:25;;;;;;;6.80;5.70;;;16.50;99.90;;;;;;4976964;28;20787;-71
2021/09/10 02:21:51;;;;;;;5.97;5.27;;;16.50;99.90;;;;;;4977055;28;20430;-71
2021/09/10 02:24:17;;;;;;;6.57;5.97;;;16.50;99.90;;;;;;4976684;28;20266;-71
2021/09/10 02:26:43;;;;;;;6.90;5.60;;;16.40;99.90;;;;;;4976516;28;20407;-71
2021/09/10 02:29:09;;;;;;;6.30;5.20;;;16.40;99.90;;;;;;4976985;28;20279;-70
2021/09/10 02:31:35;;;;;;;6.30;5.70;;;16.30;99.90;;;;;;4976881;28;20670;-70
2021/09/10 02:34:00;;;;;;;7.20;6.30;;;16.20;99.90;;;;;;4958732;28;20493;-70
2021/09/10 02:36:26;;;;;;;8.97;6.60;;;16.20;99.90;;;;;;4976676;28;20382;-70
2021/09/10 02:38:52;;;;;;;7.67;6.87;;;16.10;99.90;;;;;;4958809;28;20192;-71
2021/09/10 02:41:18;;;;;;;8.40;6.40;;;16.20;99.90;;;;;;4976759;28;20426;-71
2021/09/10 02:43:44;;;;;;;6.10;5.50;;;16.20;99.90;;;;;;4976522;28;20423;-70
2021/09/10 02:46:10;;;;;;;6.33;5.73;;;16.10;99.90;;;;;;4976546;28;20646;-71
2021/09/10 02:48:35;;;;;;;4.87;4.47;;;16.10;99.90;;;;;;4975923;28;20472;-70
2021/09/10 02:51:01;;;;;;;6.63;5.87;;;16.10;99.90;;;;;;4958846;28;20203;-71
2021/09/10 02:53:27;;;;;;;8.77;6.07;;;16.00;99.90;;;;;;4975967;28;20195;-70
2021/09/10 02:55:52;;;;;;;7.87;6.37;;;16.00;99.90;;;;;;4976229;28;20646;-71
2021/09/10 02:58:18;;;;;;;9.73;6.60;;;16.00;99.90;;;;;;4975923;28;20178;-71
2021/09/10 03:00:44;;;;;;;6.70;6.00;;;16.00;99.90;;;;;;4976272;28;20184;-72
2021/09/10 03:03:10;;;;;;;5.93;5.30;;;16.10;99.90;;;;;;4976266;28;20211;-71
2021/09/10 03:05:35;;;;;;;7.57;6.70;;;16.00;99.90;;;;;;4975958;28;20180;-71
2021/09/10 03:08:01;;;;;;;7.13;5.73;;;16.00;99.90;;;;;;4975758;28;20751;-72
2021/09/10 03:10:27;;;;;;;7.90;6.40;;;16.10;99.90;;;;;;4975951;28;20554;-72
2021/09/10 03:12:53;;;;;;;5.93;5.40;;;16.10;99.90;;;;;;4975863;28;20207;-71
2021/09/10 03:15:18;;;;;;;7.83;6.00;;;16.20;99.90;;;;;;4975777;28;20431;-71
2021/09/10 03:17:44;;;;;;;6.87;6.10;;;16.20;99.90;;;;;;4975628;28;20176;-71
2021/09/10 03:20:11;;;;;;;6.30;5.70;;;16.20;99.90;;;;;;4975893;28;20184;-71
2021/09/10 03:22:37;;;;;;;6.67;5.97;;;16.20;99.90;;;;;;4975482;28;20609;-71
2021/09/10 03:25:06;;;;;;;7.90;7.10;;;16.20;99.90;;;;;;4975724;28;20415;-71
2021/09/10 03:27:35;;;;;;;5.37;4.93;;;16.20;99.90;;;;;;4975442;28;20187;-72
2021/09/10 03:30:01;;;;;;;7.13;5.87;;;16.20;99.90;;;;;;4975610;28;20478;-71
2021/09/10 03:32:26;;;;;;;6.47;5.70;;;16.20;99.90;;;;;;4975319;28;20459;-71
2021/09/10 03:34:52;;;;;;;6.93;5.80;;;16.20;99.90;;;;;;4975775;28;20172;-71
2021/09/10 03:37:21;;;;;;;6.27;5.60;;;16.20;99.90;;;;;;4975241;28;20697;-71
2021/09/10 03:39:46;;;;;;;6.33;5.40;;;16.20;99.90;;;;;;4975442;28;20721;-70
2021/09/10 03:42:12;;;;;;;7.07;6.37;;;16.30;99.90;;;;;;4975160;28;20427;-72
2021/09/10 03:44:38;;;;;;;7.67;6.90;;;16.30;99.90;;;;;;4975401;28;20176;-71
2021/09/10 03:47:06;;;;;;;6.30;5.70;;;16.30;99.90;;;;;;4975163;28;20203;-71
2021/09/10 03:49:33;;;;;;;6.13;5.50;;;16.30;99.90;;;;;;4974946;28;20228;-71
2021/09/10 03:52:00;;;;;;;6.10;5.50;;;16.30;99.90;;;;;;4974910;28;20783;-71
2021/09/10 03:54:25;;;;;;;8.33;5.93;;;16.40;99.90;;;;;;4975151;28;20411;-71
2021/09/10 03:56:51;;;;;;;7.93;6.60;;;16.30;99.90;;;;;;4974792;28;20498;-71
2021/09/10 03:59:17;;;;;;;6.20;5.53;;;16.30;99.90;;;;;;4975037;28;20245;-71
2021/09/10 04:01:42;;;;;;;7.13;6.20;;;16.30;99.90;;;;;;4974697;28;20724;-71
2021/09/10 04:04:08;;;;;;;7.80;6.40;;;16.30;99.90;;;;;;4975118;28;20211;-71
2021/09/10 04:06:34;;;;;;;6.47;5.87;;;16.30;99.90;;;;;;4974610;28;20175;-71
2021/09/10 04:08:59;;;;;;;6.37;5.73;;;16.40;99.90;;;;;;4974824;28;20605;-71
2021/09/10 04:11:25;;;;;;;6.60;5.90;;;16.40;99.90;;;;;;4974421;28;20737;-71
2021/09/10 04:13:51;;;;;;;7.60;6.40;;;16.40;99.90;;;;;;4957479;28;20677;-72
2021/09/10 04:16:16;;;;;;;7.27;6.63;;;16.40;99.90;;;;;;4974802;28;20194;-70
2021/09/10 04:18:42;;;;;;;7.17;6.47;;;16.40;99.90;;;;;;4974139;28;20671;-71
2021/09/10 04:21:08;;;;;;;6.40;5.70;;;16.40;99.90;;;;;;4973837;28;20213;-71
2021/09/10 04:23:33;;;;;;;7.90;4.90;;;16.40;99.90;;;;;;4974622;28;20548;-71
2021/09/10 04:25:59;;;;;;;8.13;7.33;;;16.40;99.90;;;;;;4974478;28;20186;-71
2021/09/10 04:28:24;;;;;;;6.57;5.50;;;16.40;99.90;;;;;;4974192;28;20242;-71
2021/09/10 04:30:50;;;;;;;6.63;5.90;;;16.40;99.90;;;;;;4974233;28;20195;-71
2021/09/10 04:33:16;;;;;;;8.37;6.93;;;16.40;99.90;;;;;;4974950;28;20172;-71
2021/09/10 04:35:41;;;;;;;5.93;5.43;;;16.30;99.90;;;;;;4974761;28;20552;-72
2021/09/10 04:38:07;;;;;;;6.30;5.70;;;16.30;99.90;;;;;;4974450;28;20716;-70
2021/09/10 04:40:32;;;;;;;7.57;6.77;;;16.30;99.90;;;;;;4975002;28;20364;-71
2021/09/10 04:42:58;;;;;;;8.87;6.27;;;16.30;99.90;;;;;;4974748;28;20207;-71
2021/09/10 04:45:24;;;;;;;6.93;6.30;;;16.20;99.90;;;;;;4974681;28;20242;-71
2021/09/10 04:47:49;;;;;;;7.93;6.10;;;16.30;99.90;;;;;;4974491;28;20180;-71
2021/09/10 04:50:15;;;;;;;7.33;6.23;;;16.20;99.90;;;;;;4974762;28;20210;-71
2021/09/10 04:52:41;;;;;;;7.60;6.53;;;16.20;99.90;;;;;;4956899;28;20208;-71
2021/09/10 04:55:11;;;;;;;6.30;5.70;;;16.20;99.90;;;;;;4974479;28;20192;-71
2021/09/10 04:57:37;;;;;;;7.63;6.50;;;16.10;99.90;;;;;;4974331;28;20408;-72
2021/09/10 05:00:03;;;;;;;5.83;5.33;;;16.10;99.90;;;;;;4974666;28;20437;-72
2021/09/10 05:02:29;;;;;;;7.00;6.40;;;16.10;99.90;;;;;;4974504;28;20184;-71
2021/09/10 05:04:55;;;;;;;10.33;7.20;;;16.00;99.90;;;;;;4974263;28;20441;-71
2021/09/10 05:07:22;;;;;;;6.30;5.70;;;16.00;99.90;;;;;;4974102;28;20175;-71
2021/09/10 05:09:51;;;;;;;7.90;7.10;;;16.00;99.90;;;;;;4974237;28;20524;-71
2021/09/10 05:12:17;;;;;;;7.57;6.30;;;16.00;99.90;;;;;;4974159;28;20605;-72
2021/09/10 05:14:43;;;;;;;7.20;6.50;;;16.00;99.90;;;;;;4973886;28;20515;-71
2021/09/10 05:17:10;;;;;;;7.80;6.40;;;16.10;99.90;;;;;;4973805;28;20183;-71
2021/09/10 05:19:36;;;;;;;7.67;6.47;;;16.10;99.90;;;;;;4956739;28;20439;-71
2021/09/10 05:22:02;;;;;;;8.07;6.00;;;16.20;99.90;;;;;;4956327;28;20435;-72
2021/09/10 05:24:30;;;;;;;8.67;6.57;;;16.20;99.90;;;;;;4973269;28;20479;-70
2021/09/10 05:26:55;;;;;;;6.40;5.80;;;16.30;99.90;;;;;;4964609;28;20179;-71
2021/09/10 05:29:21;;;;;;;7.57;6.50;;;16.30;99.90;;;;;;4976081;28;20438;-70
2021/09/10 05:31:47;;;;;;;7.03;6.30;;;16.30;99.90;;;;;;4993991;28;20199;-72
2021/09/10 05:34:12;;;;;;;8.87;6.60;;;16.40;99.90;;;;;;4996691;28;20171;-72
2021/09/10 05:36:38;;;;;;;6.30;5.70;;;16.40;99.90;;;;;;4997244;28;20171;-71
2021/09/10 05:39:04;;;;;;;7.27;6.57;;;16.50;99.90;;;;;;4980380;28;20204;-71
2021/09/10 05:41:30;;;;;;;7.73;6.77;;;16.50;99.90;;;;;;4977988;28;20914;-72
2021/09/10 05:43:55;;;;;;;9.13;5.63;;;16.60;99.90;;;;;;4978007;28;20419;-71
2021/09/10 05:46:23;;;;;;;6.60;5.97;;;16.60;99.90;;;;;;4977939;28;20575;-71
2021/09/10 05:48:49;;;;;;;7.93;5.83;;;16.70;99.90;;;;;;4977001;28;20200;-73
2021/09/10 05:51:18;;;;;;;5.83;5.27;;;16.80;99.90;;;;;;4977926;28;20529;-70
2021/09/10 05:53:46;;;;;;;8.47;6.87;;;16.90;99.90;;;;;;4977942;28;20196;-69
2021/09/10 05:56:12;;;;;;;8.20;6.30;;;16.90;99.90;;;;;;4977681;28;20403;-71
2021/09/10 05:58:38;;;;;;;7.60;6.90;;;17.10;99.90;;;;;;4976621;28;20519;-70
2021/09/10 06:01:03;;;;;;;6.20;5.60;;;17.40;99.90;;;;;;4977780;28;20514;-69
2021/09/10 06:03:29;;;;;;;7.33;6.23;;;17.70;99.90;;;;;;4977423;28;20178;-69
2021/09/10 06:05:54;;;;;;;6.53;5.47;;;18.00;99.90;;;;;;4977004;28;20179;-69
2021/09/10 06:08:20;;;;;;;5.63;5.07;;;18.30;99.90;;;;;;4981521;28;20271;-69
2021/09/10 06:10:46;;;;;;;6.13;5.23;;;18.50;99.90;;;;;;4974324;28;20734;-68
2021/09/10 06:13:13;;;;;;;6.47;5.80;;;18.70;99.90;;;;;;4976958;28;20202;-69
2021/09/10 06:15:38;;;;;;;11.80;5.50;;;18.80;99.90;;;;;;4976911;28;20411;-67
2021/09/10 06:18:04;;;;;;;6.83;5.80;;;18.90;99.90;;;;;;4977019;28;20486;-69
2021/09/10 06:20:31;;;;;;;4.97;4.57;;;19.00;99.90;;;;;;4976998;28;20238;-69
2021/09/10 06:22:57;;;;;;;6.20;5.67;;;19.00;99.90;;;;;;4977399;28;20230;-70
2021/09/10 06:25:24;;;;;;;7.20;6.00;;;19.00;99.90;;;;;;4976675;28;20428;-68
2021/09/10 06:27:50;;;;;;;6.80;6.20;;;19.10;99.90;;;;;;4976263;28;20176;-69
2021/09/10 06:30:16;;;;;;;5.70;4.53;;;19.30;99.90;;;;;;4976431;28;20454;-65
2021/09/10 06:32:42;;;;;;;6.20;5.60;;;19.40;99.90;;;;;;4976835;28;20451;-66
2021/09/10 06:35:08;;;;;;;7.03;4.97;;;19.40;99.90;;;;;;4977123;28;20243;-65
2021/09/10 06:37:33;;;;;;;8.03;5.60;;;19.50;99.90;;;;;;4976155;28;20500;-65
2021/09/10 06:39:59;;;;;;;7.73;6.00;;;19.60;99.90;;;;;;4976565;28;20463;-65
2021/09/10 06:42:25;;;;;;;6.60;5.90;;;19.70;99.90;;;;;;4976734;28;20172;-66
2021/09/10 06:44:52;;;;;;;6.47;5.27;;;19.80;99.90;;;;;;4976424;28;20215;-66
2021/09/10 06:47:18;;;;;;;7.47;6.63;;;19.90;99.90;;;;;;4976405;28;20206;-66
2021/09/10 06:49:45;;;;;;;5.60;5.10;;;20.00;99.90;;;;;;4976388;28;20429;-65
2021/09/10 06:52:11;;;;;;;6.67;6.07;;;20.20;99.90;;;;;;4976536;28;20543;-65
2021/09/10 06:54:36;;;;;;;9.53;7.00;;;20.40;99.90;;;;;;4976510;28;20420;-65
2021/09/10 06:57:02;;;;;;;7.33;6.53;;;20.50;99.90;;;;;;4958805;28;20419;-67
2021/09/10 06:59:28;;;;;;;7.17;5.40;;;20.70;99.90;;;;;;4976377;28;20203;-67
2021/09/10 07:01:53;;;;;;;6.27;5.70;;;20.80;99.90;;;;;;4976631;28;20179;-66
2021/09/10 07:04:19;;;;;;;7.63;5.30;;;21.00;99.90;;;;;;4976406;28;20195;-65
2021/09/10 07:06:45;;;;;;;5.40;4.90;;;21.00;99.90;;;;;;4975219;28;20165;-68
2021/09/10 07:09:11;;;;;;;6.53;5.93;;;21.10;99.90;;;;;;4974104;28;20598;-68
2021/09/10 07:11:36;;;;;;;5.57;5.00;;;21.10;99.90;;;;;;4974143;28;20810;-68
2021/09/10 07:14:03;;;;;;;5.70;5.10;;;21.10;99.90;;;;;;4974322;28;20173;-67
2021/09/10 07:16:29;;;;;;;10.67;8.43;;;21.20;99.90;;;;;;4974252;28;20177;-69
2021/09/10 07:18:55;;;;;;;5.90;5.30;;;21.40;99.90;;;;;;4973838;28;20432;-68
2021/09/10 07:21:20;;;;;;;6.83;5.70;;;21.70;99.90;;;;;;4974955;28;20421;-66
2021/09/10 07:23:46;;;;;;;5.87;5.37;;;21.90;99.90;;;;;;4976243;28;20285;-65
2021/09/10 07:26:13;;;;;;;6.07;4.90;;;22.20;99.90;;;;;;4976442;28;20613;-66
2021/09/10 07:28:38;;;;;;;5.73;5.23;;;22.30;99.90;;;;;;4975742;28;20542;-67
2021/09/10 07:31:04;;;;;;;5.80;5.20;;;22.40;99.90;;;;;;4975821;28;20425;-67
2021/09/10 07:33:31;;;;;;;5.10;4.60;;;22.50;99.90;;;;;;4958879;28;20186;-68
2021/09/10 07:35:56;;;;;;;8.43;5.33;;;22.70;99.90;;;;;;4976132;28;20797;-69
2021/09/10 07:38:22;;;;;;;5.57;4.93;;;22.80;99.90;;;;;;4975478;28;20431;-68
2021/09/10 07:40:48;;;;;;;4.90;4.50;;;23.00;99.90;;;;;;4975604;28;20180;-69
2021/09/10 07:43:14;;;;;;;6.20;5.70;;;23.20;99.90;;;;;;4975554;28;20897;-69
2021/09/10 07:45:40;;;;;;;8.13;5.10;;;23.40;99.90;;;;;;4975628;28;20444;-73
2021/09/10 07:48:06;;;;;;;7.07;5.00;;;23.70;99.90;;;;;;4975293;28;20394;-70
2021/09/10 07:50:31;;;;;;;6.50;5.47;;;24.00;99.90;;;;;;4974493;28;20562;-70
2021/09/10 07:52:57;;;;;;;5.00;4.60;;;24.40;99.90;;;;;;4975471;28;20299;-70
2021/09/10 07:55:23;;;;;;;5.87;4.53;;;25.00;99.90;;;;;;4974606;28;20212;-70
2021/09/10 07:57:49;;;;;;;5.43;5.00;;;26.00;99.50;;;;;;4974984;28;20178;-72
2021/09/10 08:00:17;;;;;;;6.37;5.30;;;27.00;98.20;;;;;;4975101;28;20443;-70
2021/09/10 08:02:43;;;;;;;6.10;5.00;;;28.00;96.20;;;;;;4957410;28;20199;-74
2021/09/10 08:05:09;;;;;;;7.30;5.33;;;29.00;94.80;;;;;;4975158;28;20898;-74
2021/09/10 08:07:38;;;;;;;5.57;5.10;;;30.10;92.00;;;;;;4957451;28;20673;-77
2021/09/10 08:10:04;;;;;;;6.70;6.10;;;30.90;89.20;;;;;;4957386;28;20496;-78
2021/09/10 08:12:29;;;;;;;6.53;5.93;;;31.50;89.10;;;;;;4975166;28;20451;-75
2021/09/10 08:14:55;;;;;;;6.20;5.80;;;31.90;85.40;;;;;;4974898;28;20414;-76
2021/09/10 08:17:21;;;;;;;6.10;5.60;;;32.40;82.40;;;;;;4974685;28;20223;-76
2021/09/10 08:19:49;;;;;;;6.23;5.73;;;32.60;80.80;;;;;;4974651;28;20447;-77
2021/09/10 08:22:15;;;;;;;6.00;5.60;;;32.80;78.00;;;;;;4975191;28;20642;-76
2021/09/10 08:24:41;;;;;;;6.33;5.83;;;33.00;77.60;;;;;;4974970;28;20394;-73
2021/09/10 08:27:07;;;;;;;6.83;6.33;;;32.90;76.90;;;;;;4974416;28;20415;-73
2021/09/10 08:29:32;;;;;;;6.70;6.00;;;33.10;76.80;;;;;;4974428;28;20200;-74
2021/09/10 08:31:58;;;;;;;6.87;6.23;;;33.70;76.20;;;;;;4974792;28;20200;-75
2021/09/10 08:34:24;;;;;;;6.53;5.67;;;34.20;73.50;;;;;;4974632;28;20654;-72
2021/09/10 08:36:49;;;;;;;6.80;6.30;;;34.60;70.80;;;;;;4974598;28;20191;-76
2021/09/10 08:39:15;;;;;;;5.50;5.10;;;35.00;69.70;;;;;;4974236;28;20243;-73
2021/09/10 08:41:43;;;;;;;5.63;5.23;;;35.40;69.30;;;;;;4975034;28;20563;-76
2021/09/10 08:44:12;;;;;;;5.70;5.20;;;35.90;67.10;;;;;;4974493;28;20200;-74
2021/09/10 08:46:40;;;;;;;4.90;4.60;;;36.40;64.80;;;;;;4956980;28;20487;-74
2021/09/10 08:49:07;;;;;;;7.23;5.30;;;36.70;62.90;;;;;;4974198;28;20459;-76
2021/09/10 08:51:33;;;;;;;4.50;4.20;;;36.80;61.90;;;;;;4974533;28;20469;-75
2021/09/10 08:53:59;;;;;;;6.00;5.50;;;36.90;59.80;;;;;;4974540;28;20518;-76
2021/09/10 08:56:25;;;;;;;5.40;5.00;;;36.60;60.50;;;;;;4974319;28;20251;-73
2021/09/10 08:59:04;;;;;;;6.10;5.70;;;36.20;59.40;;;;;;4973911;28;20192;-76
2021/09/10 09:01:30;;;;;;;6.60;6.10;;;35.50;60.10;;;;;;4957006;28;20474;-75
2021/09/10 09:04:04;;;;;;;6.10;5.10;;;34.90;63.10;;;;;;4973877;28;20404;-72
2021/09/10 09:06:32;;;;;;;5.60;5.10;;;34.20;62.90;;;;;;4956557;28;20416;-76
2021/09/10 09:08:57;;;;;;;5.37;4.97;;;33.90;65.60;;;;;;4974067;28;20436;-81
2021/09/10 09:11:25;;;;;;;5.37;4.97;;;33.70;64.80;;;;;;4974362;28;20529;-79
2021/09/10 09:13:55;;;;;;;8.00;5.00;;;33.80;65.00;;;;;;4974286;28;20238;-78
2021/09/10 09:16:26;;;;;;;5.70;5.20;;;33.80;64.40;;;;;;4974507;28;20519;-77
2021/09/10 09:18:57;;;;;;;5.97;5.47;;;33.50;64.80;;;;;;4973908;28;20431;-77
2021/09/10 09:21:31;;;;;;;4.80;4.40;;;33.80;63.70;;;;;;4971599;28;20423;-78
2021/09/10 09:24:18;;;;;;;4.67;4.37;;;34.20;63.90;;;;;;4973432;28;20427;-77
2021/09/10 09:26:47;;;;;;;5.07;4.70;;;34.90;62.70;;;;;;4972143;28;20430;-72
2021/09/10 09:29:15;;;;;;;6.47;5.97;;;35.70;59.60;;;;;;4973775;28;20468;-74
2021/09/10 09:31:52;;;;;;;4.90;4.60;;;36.10;58.30;;;;;;4974636;28;21000;-78
2021/09/10 09:34:47;;;;;;;5.73;5.33;;;36.30;57.80;;;;;;4974139;28;20799;-74
2021/09/10 09:37:24;;;;;;;5.33;4.93;;;36.30;56.80;;;;;;4974031;28;20420;-73
2021/09/10 09:39:54;;;;;;;4.90;4.60;;;35.70;57.90;;;;;;4974364;28;20917;-71
2021/09/10 09:42:27;;;;;;;4.50;4.17;;;34.90;59.10;;;;;;4974211;28;20416;-73
2021/09/10 09:45:12;;;;;;;5.20;4.80;;;34.60;60.70;;;;;;4956429;28;20943;-75
2021/09/10 09:47:38;;;;;;;5.27;4.87;;;34.80;60.30;;;;;;4973746;28;20462;-73
2021/09/10 09:50:09;;;;;;;5.33;4.93;;;35.30;60.00;;;;;;4957133;28;20455;-75
2021/09/10 09:52:35;;;;;;;5.13;4.73;;;35.90;59.30;;;;;;4974223;28;20457;-73
2021/09/10 09:55:06;;;;;;;4.83;4.43;;;36.40;58.80;;;;;;4956588;28;20973;-73
2021/09/10 09:57:33;;;;;;;4.97;4.57;;;36.90;57.50;;;;;;4973671;28;20176;-73
2021/09/10 10:00:03;;;;;;;5.60;5.10;;;37.10;56.20;;;;;;4973949;28;20406;-73
2021/09/10 10:02:28;;;;;;;5.10;4.80;;;36.90;56.80;;;;;;4974011;28;20466;-74
2021/09/10 10:04:57;;;;;;;6.30;5.23;;;36.60;56.10;;;;;;4973639;28;20428;-73
2021/09/10 10:07:24;;;;;;;5.87;5.40;;;36.10;57.30;;;;;;4973197;28;20203;-74
2021/09/10 10:09:51;;;;;;;5.17;4.77;;;35.40;57.60;;;;;;4974101;28;20435;-69
2021/09/10 10:12:23;;;;;;;5.30;4.90;;;35.00;58.00;;;;;;4974159;28;20524;-73
2021/09/10 10:14:49;;;;;;;5.03;4.63;;;34.90;59.70;;;;;;4973656;28;20432;-72
2021/09/10 10:17:32;;;;;;;5.30;4.90;;;35.10;59.00;;;;;;4973595;28;20762;-75
2021/09/10 10:19:58;;;;;;;5.40;5.00;;;35.30;59.40;;;;;;4976521;28;20670;-75
2021/09/10 10:22:40;;;;;;;6.73;6.20;;;35.40;57.90;;;;;;4977519;28;20426;-73
2021/09/10 10:25:10;;;;;;;5.40;4.90;;;35.60;58.90;;;;;;4977282;28;20497;-73
2021/09/10 10:27:39;;;;;;;5.70;5.20;;;35.70;57.90;;;;;;4978538;28;20403;-73
2021/09/10 10:30:14;;;;;;;6.43;5.93;;;36.10;57.10;;;;;;4979050;28;20417;-73
2021/09/10 10:32:43;;;;;;;4.93;4.60;;;36.20;57.20;;;;;;4979805;28;20466;-72
2021/09/10 10:35:39;;;;;;;5.40;5.00;;;36.20;55.80;;;;;;4977826;28;20394;-76
2021/09/10 10:38:09;;;;;;;6.10;5.53;;;35.40;55.70;;;;;;4977082;28;20507;-71
2021/09/10 10:40:41;;;;;;;5.80;5.33;;;34.30;57.30;;;;;;4977515;28;20747;-76
2021/09/10 10:43:08;;;;;;;5.83;4.97;;;33.50;58.80;;;;;;4977554;28;20404;-70
2021/09/10 10:45:46;;;;;;;4.83;4.40;;;32.90;59.80;;;;;;4977094;28;20547;-70
2021/09/10 10:48:29;;;;;;;5.13;4.73;;;32.60;60.50;;;;;;4976502;28;20458;-70
2021/09/10 10:51:17;;;;;;;5.83;5.33;;;32.70;61.60;;;;;;4976910;28;20402;-72
2021/09/10 10:53:45;;;;;;;5.13;4.73;;;32.90;63.00;;;;;;4975433;28;20431;-72
2021/09/10 10:56:32;;;;;;;5.90;5.43;;;33.20;61.70;;;;;;4977059;28;20758;-71
2021/09/10 10:59:24;;;;;;;7.37;4.90;;;33.60;60.10;;;;;;4959348;28;20492;-72
2021/09/10 11:02:19;;;;;;;5.90;5.40;;;33.60;61.30;;;;;;4959589;28;20404;-72
2021/09/10 11:04:50;;;;;;;5.77;5.27;;;33.80;60.60;;;;;;4958935;28;21050;-71
2021/09/10 11:07:26;;;;;;;5.00;4.60;;;33.80;60.00;;;;;;4976153;28;20497;-71
2021/09/10 11:10:06;;;;;;;5.30;4.80;;;33.50;60.20;;;;;;4976680;28;20889;-71
2021/09/10 11:12:32;;;;;;;5.07;4.57;;;33.00;62.60;;;;;;4976698;28;20810;-70
2021/09/10 11:14:59;;;;;;;5.50;5.10;;;32.50;62.90;;;;;;4976476;28;20428;-71
2021/09/10 11:17:28;;;;;;;5.73;5.23;;;32.10;62.40;;;;;;4958856;28;20431;-70
2021/09/10 11:19:56;;;;;;;5.23;4.80;;;31.80;64.30;;;;;;4976384;28;20500;-71
2021/09/10 11:22:22;;;;;;;8.33;5.17;;;31.60;63.90;;;;;;4976455;28;20407;-73
2021/09/10 11:24:48;;;;;;;5.10;4.60;;;31.30;63.70;;;;;;4976069;28;20522;-68
2021/09/10 11:27:25;;;;;;;4.30;3.90;;;31.10;63.70;;;;;;4976013;28;20863;-68
2021/09/10 11:29:51;;;;;;;6.23;4.93;;;30.80;65.00;;;;;;4975475;28;20199;-69
2021/09/10 11:32:26;;;;;;;4.90;4.50;;;30.50;66.50;;;;;;4975822;28;20806;-69
2021/09/10 11:34:53;;;;;;;5.43;4.93;;;30.20;66.60;;;;;;4976081;28;20405;-72
2021/09/10 11:37:28;;;;;;;4.60;4.30;;;29.90;67.50;;;;;;4976103;28;20744;-72
2021/09/10 11:39:55;;;;;;;4.80;4.40;;;29.70;67.70;;;;;;4976350;28;20421;-72
2021/09/10 11:42:35;;;;;;;4.37;4.03;;;29.40;69.10;;;;;;4976361;28;20393;-72
2021/09/10 11:45:21;;;;;;;4.70;4.40;;;29.30;70.30;;;;;;4976076;28;20402;-72
2021/09/10 11:47:48;;;;;;;6.60;4.43;;;29.20;71.00;;;;;;4975868;28;20753;-71
2021/09/10 11:50:13;;;;;;;5.07;4.57;;;29.10;73.60;;;;;;4975913;28;20480;-72
2021/09/10 11:52:40;;;;;;;7.67;5.30;;;29.10;74.00;;;;;;4976178;28;20912;-70
2021/09/10 11:55:17;;;;;;;6.83;5.50;;;29.10;74.30;;;;;;4975687;28;20180;-70
2021/09/10 11:57:44;;;;;;;9.60;6.40;;;29.20;73.50;;;;;;4975629;28;20408;-67
2021/09/10 12:00:23;;;;;;;4.70;4.40;;;29.30;74.90;;;;;;4975675;28;20398;-72
2021/09/10 12:02:59;;;;;;;5.43;4.93;;;29.30;73.90;;;;;;4974941;28;20398;-71
2021/09/10 12:05:26;;;;;;;6.20;4.93;;;29.30;70.80;;;;;;4958138;28;20438;-75
2021/09/10 12:07:53;;;;;;;4.67;4.30;;;29.30;72.10;;;;;;4975234;28;20397;-70
2021/09/10 12:10:34;;;;;;;4.83;4.33;;;29.10;71.30;;;;;;4975201;28;20534;-72
2021/09/10 12:13:14;;;;;;;4.80;4.17;;;29.00;71.70;;;;;;4975275;28;20861;-71
2021/09/10 12:15:42;;;;;;;4.27;3.80;;;28.90;73.60;;;;;;4974886;28;20455;-68
2021/09/10 12:18:14;;;;;;;4.17;3.87;;;28.90;73.30;;;;;;4974891;28;20395;-70
2021/09/10 12:20:51;;;;;;;4.77;4.37;;;29.00;74.10;;;;;;4975430;28;20477;-70
2021/09/10 12:23:21;;;;;;;4.93;4.53;;;29.10;72.90;;;;;;4957858;28;20401;-68
2021/09/10 12:26:02;;;;;;;5.07;4.57;;;29.00;71.70;;;;;;4974827;28;20806;-70
2021/09/10 12:28:30;;;;;;;4.53;4.17;;;28.80;72.60;;;;;;4957535;28;20837;-70
2021/09/10 12:31:06;;;;;;;4.40;4.10;;;28.60;72.80;;;;;;4975030;28;20709;-71
2021/09/10 12:33:33;;;;;;;4.33;3.93;;;28.40;73.90;;;;;;4975372;28;20430;-68
2021/09/10 12:36:01;;;;;;;4.80;4.40;;;28.40;74.00;;;;;;4974989;28;20475;-72
2021/09/10 12:38:36;;;;;;;8.97;5.80;;;28.30;74.50;;;;;;4972983;28;20411;-69
2021/09/10 12:41:01;;;;;;;5.20;4.67;;;28.30;75.70;;;;;;4972802;28;20382;-71
2021/09/10 12:43:28;;;;;;;4.70;4.37;;;28.30;76.00;;;;;;4972673;28;20476;-69
2021/09/10 12:45:55;;;;;;;5.40;4.90;;;28.30;75.90;;;;;;4973041;28;20203;-71
2021/09/10 12:48:21;;;;;;;4.90;4.40;;;28.30;76.30;;;;;;4972222;28;20799;-72